createdAt,value
2022-07-27T00:01:19.338Z,17.98
2022-07-27T00:03:47.255Z,17.97
2022-07-27T00:06:15.029Z,17.94
2022-07-27T00:08:43.048Z,17.92
2022-07-27T00:11:11.769Z,17.90
2022-07-27T00:13:39.460Z,17.87
2022-07-27T00:16:07.143Z,17.84
2022-07-27T00:18:35.393Z,17.79
2022-07-27T00:21:03.018Z,17.76
2022-07-27T00:23:30.825Z,17.71
2022-07-27T00:25:58.456Z,17.68
2022-07-27T00:28:26.585Z,17.62
2022-07-27T00:30:54.328Z,17.55
2022-07-27T00:33:21.957Z,17.45
2022-07-27T00:35:49.657Z,17.39
2022-07-27T00:38:17.881Z,17.35
2022-07-27T00:40:45.692Z,17.33
2022-07-27T00:43:13.374Z,17.29
2022-07-27T00:45:41.073Z,17.27
2022-07-27T00:48:09.234Z,17.23
2022-07-27T00:50:36.912Z,17.19
2022-07-27T00:53:06.148Z,17.14
2022-07-27T00:55:33.801Z,17.08
2022-07-27T00:58:03.868Z,17.03
2022-07-27T01:00:31.492Z,16.99
2022-07-27T01:02:59.209Z,16.93
2022-07-27T01:05:36.426Z,16.88
2022-07-27T01:08:07.930Z,16.84
2022-07-27T01:10:35.621Z,16.81
2022-07-27T01:13:03.279Z,16.78
2022-07-27T01:15:31.412Z,16.77
2022-07-27T01:18:04.652Z,16.76
2022-07-27T01:20:33.901Z,16.77
2022-07-27T01:23:01.639Z,16.76
2022-07-27T01:25:29.770Z,16.76
2022-07-27T01:27:57.462Z,16.78
2022-07-27T01:30:29.743Z,16.77
2022-07-27T01:32:57.465Z,16.77
2022-07-27T01:35:25.143Z,16.75
2022-07-27T01:37:53.247Z,16.74
2022-07-27T01:40:20.981Z,16.72
2022-07-27T01:42:48.595Z,16.72
2022-07-27T01:45:16.321Z,16.72
2022-07-27T01:47:44.871Z,16.72
2022-07-27T01:50:12.592Z,16.70
2022-07-27T01:52:40.301Z,16.68
2022-07-27T01:55:07.999Z,16.67
2022-07-27T01:57:35.679Z,16.66
2022-07-27T02:00:03.534Z,16.64
2022-07-27T02:02:31.208Z,16.64
2022-07-27T02:04:58.963Z,16.63
2022-07-27T02:07:26.672Z,16.63
2022-07-27T02:09:54.334Z,16.62
2022-07-27T02:12:36.353Z,16.62
2022-07-27T02:15:06.003Z,16.63
2022-07-27T02:17:33.953Z,16.63
2022-07-27T02:20:02.882Z,16.66
2022-07-27T02:22:30.524Z,16.68
2022-07-27T02:24:59.629Z,16.69
2022-07-27T02:27:27.327Z,16.66
2022-07-27T02:29:54.962Z,16.62
2022-07-27T02:32:22.661Z,16.62
2022-07-27T02:34:50.358Z,16.59
2022-07-27T02:37:18.473Z,16.54
2022-07-27T02:39:46.114Z,16.51
2022-07-27T02:42:13.779Z,16.49
2022-07-27T02:44:41.675Z,16.47
2022-07-27T02:47:09.889Z,16.48
2022-07-27T02:49:37.586Z,16.49
2022-07-27T02:52:05.244Z,16.50
2022-07-27T02:54:32.933Z,16.50
2022-07-27T02:57:00.975Z,16.48
2022-07-27T02:59:28.638Z,16.43
2022-07-27T03:01:56.320Z,16.35
2022-07-27T03:04:24.470Z,16.24
2022-07-27T03:06:52.579Z,16.16
2022-07-27T03:09:20.615Z,16.06
2022-07-27T03:12:01.208Z,15.97
2022-07-27T03:14:29.418Z,15.88
2022-07-27T03:16:57.040Z,15.81
2022-07-27T03:19:29.769Z,15.74
2022-07-27T03:21:57.937Z,15.68
2022-07-27T03:24:25.633Z,15.61
2022-07-27T03:26:53.298Z,15.57
2022-07-27T03:29:21.052Z,15.53
2022-07-27T03:31:48.654Z,15.47
2022-07-27T03:34:16.315Z,15.42
2022-07-27T03:36:44.664Z,15.37
2022-07-27T03:39:13.656Z,15.28
2022-07-27T03:41:41.757Z,15.21
2022-07-27T03:44:09.392Z,15.15
2022-07-27T03:46:37.505Z,15.09
2022-07-27T03:49:14.894Z,15.05
2022-07-27T03:51:42.989Z,14.99
2022-07-27T03:54:11.214Z,14.96
2022-07-27T03:56:38.829Z,14.93
2022-07-27T03:59:06.894Z,14.91
2022-07-27T04:01:34.564Z,14.90
2022-07-27T04:04:02.272Z,14.87
2022-07-27T04:06:29.923Z,14.83
2022-07-27T04:09:08.150Z,14.79
2022-07-27T04:11:37.774Z,14.76
2022-07-27T04:14:12.795Z,14.74
2022-07-27T04:16:41.578Z,14.74
2022-07-27T04:19:09.475Z,14.77
2022-07-27T04:21:38.083Z,14.82
2022-07-27T04:24:05.725Z,14.88
2022-07-27T04:26:33.684Z,14.96
2022-07-27T04:29:01.261Z,15.02
2022-07-27T04:31:28.952Z,15.07
2022-07-27T04:33:56.619Z,15.12
2022-07-27T04:36:24.280Z,15.14
2022-07-27T04:38:52.369Z,15.15
2022-07-27T04:41:19.976Z,15.17
2022-07-27T04:43:47.634Z,15.20
2022-07-27T04:46:15.832Z,15.24
2022-07-27T04:48:49.531Z,15.28
2022-07-27T04:51:17.435Z,15.35
2022-07-27T04:53:53.951Z,15.40
2022-07-27T04:56:26.452Z,15.46
2022-07-27T04:58:54.110Z,15.53
2022-07-27T05:01:23.099Z,15.60
2022-07-27T05:03:50.982Z,15.69
2022-07-27T05:06:18.759Z,15.75
2022-07-27T05:08:46.865Z,15.80
2022-07-27T05:11:14.521Z,15.85
2022-07-27T05:13:42.225Z,15.91
2022-07-27T05:16:10.857Z,15.99
2022-07-27T05:18:38.977Z,16.08
2022-07-27T05:21:06.688Z,16.15
2022-07-27T05:23:34.461Z,16.25
2022-07-27T05:26:02.129Z,16.35
2022-07-27T05:28:30.232Z,16.45
2022-07-27T05:30:57.970Z,16.53
2022-07-27T05:33:25.663Z,16.65
2022-07-27T05:35:53.340Z,16.72
2022-07-27T05:38:21.500Z,16.76
2022-07-27T05:40:49.175Z,16.82
2022-07-27T05:43:16.885Z,16.90
2022-07-27T05:45:44.887Z,17.00
2022-07-27T05:48:13.034Z,17.11
2022-07-27T05:50:40.690Z,17.13
2022-07-27T05:53:08.987Z,17.17
2022-07-27T05:55:36.652Z,17.26
2022-07-27T05:58:05.145Z,17.34
2022-07-27T06:00:33.103Z,17.40
2022-07-27T06:03:01.013Z,17.49
2022-07-27T06:05:28.791Z,17.60
2022-07-27T06:08:06.686Z,17.73
2022-07-27T06:10:34.316Z,17.86
2022-07-27T06:13:01.976Z,18.00
2022-07-27T06:15:29.912Z,18.11
2022-07-27T06:17:57.604Z,18.20
2022-07-27T06:20:25.282Z,18.28
2022-07-27T06:22:52.913Z,18.34
2022-07-27T06:25:20.673Z,18.40
2022-07-27T06:27:48.344Z,18.44
2022-07-27T06:30:16.143Z,18.45
2022-07-27T06:32:43.889Z,18.43
2022-07-27T06:35:12.538Z,18.41
2022-07-27T06:37:44.363Z,18.48
2022-07-27T06:40:12.564Z,18.59
2022-07-27T06:42:40.185Z,18.74
2022-07-27T06:45:07.903Z,18.88
2022-07-27T06:47:35.529Z,18.84
2022-07-27T06:50:17.275Z,18.72
2022-07-27T06:52:45.353Z,18.56
2022-07-27T06:55:12.979Z,18.45
2022-07-27T06:57:40.656Z,18.52
2022-07-27T07:00:08.345Z,18.49
2022-07-27T07:02:36.073Z,18.49
2022-07-27T07:05:04.319Z,18.60
2022-07-27T07:07:32.975Z,18.60
2022-07-27T07:10:00.668Z,18.51
2022-07-27T07:12:28.880Z,18.41
2022-07-27T07:14:56.534Z,18.35
2022-07-27T07:17:25.133Z,18.44
2022-07-27T07:19:52.808Z,18.55
2022-07-27T07:22:20.525Z,18.62
2022-07-27T07:24:48.621Z,18.76
2022-07-27T07:27:16.360Z,19.04
2022-07-27T07:29:44.074Z,19.33
2022-07-27T07:32:11.726Z,19.64
2022-07-27T07:34:42.058Z,19.90
2022-07-27T07:37:10.608Z,20.13
2022-07-27T07:39:38.272Z,20.27
2022-07-27T07:42:06.005Z,20.40
2022-07-27T07:44:38.762Z,20.51
2022-07-27T07:47:06.904Z,20.60
2022-07-27T07:49:39.808Z,20.55
2022-07-27T07:52:08.126Z,20.52
2022-07-27T07:54:36.052Z,20.46
2022-07-27T07:57:03.927Z,20.51
2022-07-27T07:59:31.689Z,20.49
2022-07-27T08:01:59.602Z,20.50
2022-07-27T08:04:27.336Z,20.63
2022-07-27T08:06:56.260Z,20.79
2022-07-27T08:09:26.975Z,21.08
2022-07-27T08:11:54.735Z,21.28
2022-07-27T08:14:23.476Z,21.39
2022-07-27T08:16:51.155Z,21.33
2022-07-27T08:19:18.963Z,21.27
2022-07-27T08:21:46.967Z,21.21
2022-07-27T08:24:14.686Z,21.13
2022-07-27T08:26:42.410Z,21.03
2022-07-27T08:29:13.746Z,20.88
2022-07-27T08:31:51.307Z,20.75
2022-07-27T08:34:20.397Z,20.74
2022-07-27T08:36:48.151Z,20.82
2022-07-27T08:39:52.663Z,20.92
2022-07-27T08:42:04.404Z,20.87
2022-07-27T08:44:32.607Z,20.84
2022-07-27T08:47:00.387Z,20.88
2022-07-27T08:49:42.007Z,21.09
2022-07-27T08:52:10.619Z,21.38
2022-07-27T08:54:38.579Z,21.72
2022-07-27T08:57:06.334Z,21.97
2022-07-27T08:59:34.052Z,21.95
2022-07-27T09:02:03.522Z,21.78
2022-07-27T09:04:31.557Z,21.54
2022-07-27T09:06:59.755Z,21.36
2022-07-27T09:09:27.442Z,21.22
2022-07-27T09:11:55.092Z,21.13
2022-07-27T09:14:23.166Z,21.06
2022-07-27T09:17:45.867Z,20.96
2022-07-27T09:19:38.563Z,20.94
2022-07-27T09:22:06.655Z,21.01
2022-07-27T09:24:47.096Z,21.13
2022-07-27T09:27:15.508Z,21.24
2022-07-27T09:29:43.141Z,21.33
2022-07-27T09:32:10.835Z,21.60
2022-07-27T09:34:38.779Z,21.71
2022-07-27T09:37:08.260Z,21.64
2022-07-27T09:39:36.297Z,21.60
2022-07-27T09:42:03.995Z,21.60
2022-07-27T09:44:32.745Z,21.75
2022-07-27T09:47:02.521Z,22.17
2022-07-27T09:49:30.298Z,22.76
2022-07-27T09:52:00.948Z,23.16
2022-07-27T09:54:31.885Z,22.98
2022-07-27T09:56:59.529Z,22.66
2022-07-27T09:59:28.130Z,22.38
2022-07-27T10:01:55.962Z,22.06
2022-07-27T10:04:23.723Z,21.76
2022-07-27T10:07:02.846Z,21.53
2022-07-27T10:09:31.470Z,21.35
2022-07-27T10:11:59.189Z,21.26
2022-07-27T10:14:27.208Z,21.19
2022-07-27T10:16:54.934Z,21.18
2022-07-27T10:19:22.643Z,21.19
2022-07-27T10:21:50.569Z,21.29
2022-07-27T10:24:18.187Z,21.41
2022-07-27T10:26:46.106Z,21.52
2022-07-27T10:29:15.598Z,21.67
2022-07-27T10:31:43.278Z,21.93
2022-07-27T10:34:11.308Z,22.20
2022-07-27T10:36:40.501Z,22.69
2022-07-27T10:39:08.259Z,23.82
2022-07-27T10:41:36.201Z,25.10
2022-07-27T10:44:04.424Z,25.92
2022-07-27T10:46:32.165Z,26.89
2022-07-27T10:49:00.143Z,27.66
2022-07-27T10:51:28.305Z,28.46
2022-07-27T10:54:11.936Z,29.00
2022-07-27T10:56:40.698Z,29.07
2022-07-27T10:59:08.402Z,29.00
2022-07-27T11:01:36.158Z,29.54
2022-07-27T11:04:03.966Z,30.10
2022-07-27T11:06:36.278Z,30.54
2022-07-27T11:11:58.267Z,29.78
2022-07-27T11:14:30.521Z,30.00
2022-07-27T11:17:07.944Z,29.91
2022-07-27T11:19:47.081Z,29.43
2022-07-27T11:22:28.625Z,29.22
2022-07-27T11:24:56.699Z,29.16
2022-07-27T11:27:25.452Z,29.08
2022-07-27T11:29:53.191Z,28.88
2022-07-27T11:32:20.928Z,28.70
2022-07-27T11:34:48.738Z,29.29
2022-07-27T11:37:19.496Z,30.17
2022-07-27T11:40:03.301Z,30.83
2022-07-27T11:42:34.899Z,30.74
2022-07-27T11:45:03.810Z,30.79
2022-07-27T11:47:31.539Z,30.73
2022-07-27T11:49:59.217Z,30.53
2022-07-27T11:52:27.031Z,30.10
2022-07-27T11:54:57.647Z,30.46
2022-07-27T11:57:25.432Z,30.96
2022-07-27T11:59:53.125Z,31.62
2022-07-27T12:02:22.546Z,32.32
2022-07-27T12:04:50.776Z,32.80
2022-07-27T12:07:20.147Z,33.07
2022-07-27T12:09:48.081Z,32.69
2022-07-27T12:12:15.866Z,31.36
2022-07-27T12:14:43.600Z,29.85
2022-07-27T12:17:12.165Z,28.62
2022-07-27T12:19:39.982Z,27.65
2022-07-27T12:22:07.597Z,26.90
2022-07-27T12:24:35.374Z,26.26
2022-07-27T12:27:06.698Z,25.82
2022-07-27T12:29:34.712Z,25.48
2022-07-27T12:32:02.392Z,25.37
2022-07-27T12:34:30.023Z,25.96
2022-07-27T12:36:58.224Z,27.32
2022-07-27T12:39:25.878Z,28.62
2022-07-27T12:41:53.573Z,29.91
2022-07-27T12:44:21.328Z,30.95
2022-07-27T12:46:49.492Z,31.50
2022-07-27T12:49:17.717Z,31.13
2022-07-27T12:51:47.014Z,30.29
2022-07-27T12:54:14.694Z,29.20
2022-07-27T12:56:42.702Z,28.27
2022-07-27T12:59:10.525Z,27.51
2022-07-27T13:01:38.697Z,26.88
2022-07-27T13:04:06.539Z,26.41
2022-07-27T13:06:34.623Z,26.09
2022-07-27T13:09:02.377Z,25.83
2022-07-27T13:11:30.074Z,25.63
2022-07-27T13:13:57.755Z,25.52
2022-07-27T13:16:26.028Z,25.49
2022-07-27T13:18:53.767Z,25.47
2022-07-27T13:21:21.652Z,25.64
2022-07-27T13:23:49.315Z,26.57
2022-07-27T13:26:20.872Z,27.69
2022-07-27T13:28:49.682Z,28.78
2022-07-27T13:31:19.165Z,29.52
2022-07-27T13:33:46.918Z,29.94
2022-07-27T13:36:14.914Z,30.16
2022-07-27T13:38:42.638Z,30.22
2022-07-27T13:41:10.643Z,30.24
2022-07-27T13:43:38.323Z,30.07
2022-07-27T13:46:08.567Z,29.88
2022-07-27T13:48:36.327Z,29.70
2022-07-27T13:51:04.341Z,29.37
2022-07-27T13:53:31.994Z,29.05
2022-07-27T13:56:01.581Z,28.68
2022-07-27T13:58:30.393Z,28.17
2022-07-27T14:00:58.241Z,27.59
2022-07-27T14:03:26.080Z,27.10
2022-07-27T14:05:55.688Z,27.16
2022-07-27T14:08:25.595Z,27.49
2022-07-27T14:10:53.330Z,27.58
2022-07-27T14:13:21.708Z,27.20
2022-07-27T14:15:52.497Z,26.79
2022-07-27T14:18:23.580Z,26.58
2022-07-27T14:20:51.436Z,26.83
2022-07-27T14:23:19.067Z,27.68
2022-07-27T14:25:47.640Z,28.49
2022-07-27T14:28:16.323Z,29.04
2022-07-27T14:30:44.029Z,29.09
2022-07-27T14:33:11.827Z,29.21
2022-07-27T14:35:40.923Z,29.75
2022-07-27T14:38:08.853Z,30.35
2022-07-27T14:40:36.558Z,30.67
2022-07-27T14:43:04.224Z,30.16
2022-07-27T14:45:44.124Z,29.23
2022-07-27T14:48:18.713Z,29.00
2022-07-27T14:50:50.601Z,29.45
2022-07-27T14:53:18.778Z,30.06
2022-07-27T14:55:46.573Z,30.70
2022-07-27T14:58:14.366Z,30.91
2022-07-27T15:00:42.099Z,31.08
2022-07-27T15:03:09.885Z,31.41
2022-07-27T15:05:49.741Z,31.40
2022-07-27T15:08:20.198Z,30.58
2022-07-27T15:10:48.040Z,29.88
2022-07-27T15:13:15.919Z,29.27
2022-07-27T15:15:44.118Z,29.05
2022-07-27T15:18:11.876Z,29.01
2022-07-27T15:20:39.572Z,29.40
2022-07-27T15:23:07.321Z,29.62
2022-07-27T15:25:35.412Z,30.18
2022-07-27T15:28:03.043Z,30.65
2022-07-27T15:30:34.967Z,30.95
2022-07-27T15:33:05.748Z,30.85
2022-07-27T15:35:33.435Z,29.84
2022-07-27T15:38:01.469Z,29.65
2022-07-27T15:40:38.322Z,29.02
2022-07-27T15:43:06.202Z,28.04
2022-07-27T15:45:38.571Z,27.24
2022-07-27T15:48:06.528Z,26.61
2022-07-27T15:50:34.165Z,26.17
2022-07-27T15:53:01.859Z,25.85
2022-07-27T15:55:29.512Z,26.24
2022-07-27T15:57:57.147Z,26.82
2022-07-27T16:00:25.653Z,26.65
2022-07-27T16:02:53.818Z,26.28
2022-07-27T16:05:22.250Z,25.93
2022-07-27T16:07:49.978Z,25.58
2022-07-27T16:10:17.681Z,25.25
2022-07-27T16:12:45.473Z,24.99
2022-07-27T16:15:13.672Z,24.77
2022-07-27T16:17:41.427Z,24.58
2022-07-27T16:20:09.098Z,24.59
2022-07-27T16:22:39.586Z,25.80
2022-07-27T16:25:08.605Z,26.89
2022-07-27T16:27:36.231Z,27.72
2022-07-27T16:30:03.960Z,27.82
2022-07-27T16:32:32.489Z,28.45
2022-07-27T16:35:00.167Z,29.40
2022-07-27T16:37:29.438Z,30.16
2022-07-27T16:39:57.224Z,30.11
2022-07-27T16:42:24.912Z,29.37
2022-07-27T16:44:52.710Z,28.50
2022-07-27T16:47:20.549Z,27.70
2022-07-27T16:49:48.212Z,26.99
2022-07-27T16:52:16.009Z,26.32
2022-07-27T16:54:44.185Z,25.70
2022-07-27T16:57:11.840Z,25.19
2022-07-27T16:59:40.297Z,24.83
2022-07-27T17:02:08.021Z,24.50
2022-07-27T17:04:36.295Z,24.23
2022-07-27T17:07:03.993Z,24.06
2022-07-27T17:09:33.129Z,23.91
2022-07-27T17:12:00.781Z,23.76
2022-07-27T17:14:28.919Z,23.65
2022-07-27T17:16:56.775Z,23.57
2022-07-27T17:19:24.544Z,23.44
2022-07-27T17:21:52.151Z,23.33
2022-07-27T17:24:20.244Z,23.23
2022-07-27T17:26:47.886Z,23.09
2022-07-27T17:29:16.289Z,22.96
2022-07-27T17:31:44.328Z,22.82
2022-07-27T17:34:12.143Z,22.67
2022-07-27T17:36:40.138Z,22.54
2022-07-27T17:39:09.027Z,22.44
2022-07-27T17:41:38.770Z,22.32
2022-07-27T17:44:06.408Z,22.22
2022-07-27T17:46:38.785Z,22.15
2022-07-27T17:49:07.083Z,22.11
2022-07-27T17:51:34.903Z,22.00
2022-07-27T17:54:03.963Z,21.95
2022-07-27T17:56:32.707Z,21.92
2022-07-27T17:59:14.318Z,21.88
2022-07-27T18:01:48.749Z,21.86
2022-07-27T18:04:16.602Z,21.84
2022-07-27T18:06:45.295Z,21.83
2022-07-27T18:09:14.539Z,21.81
2022-07-27T18:11:42.706Z,21.77
2022-07-27T18:14:10.306Z,21.75
2022-07-27T18:16:40.873Z,21.72
2022-07-27T18:19:11.945Z,21.66
2022-07-27T18:21:39.866Z,21.62
2022-07-27T18:24:07.573Z,21.57
2022-07-27T18:26:40.788Z,21.53
2022-07-27T18:29:08.549Z,21.49
2022-07-27T18:31:36.519Z,21.45
2022-07-27T18:34:09.301Z,21.41
2022-07-27T18:36:42.638Z,21.36
2022-07-27T18:39:11.326Z,21.31
2022-07-27T18:41:40.842Z,21.24
2022-07-27T18:44:08.635Z,21.18
2022-07-27T18:46:36.742Z,21.11
2022-07-27T18:49:05.158Z,21.03
2022-07-27T18:51:32.979Z,20.96
2022-07-27T18:54:00.820Z,20.92
2022-07-27T18:56:29.028Z,20.85
2022-07-27T18:58:56.798Z,20.79
2022-07-27T19:01:24.481Z,20.73
2022-07-27T19:03:52.333Z,20.67
2022-07-27T19:06:20.107Z,20.64
2022-07-27T19:08:50.531Z,20.61
2022-07-27T19:11:18.316Z,20.58
2022-07-27T19:13:46.019Z,20.57
2022-07-27T19:16:13.683Z,20.53
2022-07-27T19:18:41.492Z,20.50
2022-07-27T19:21:09.245Z,20.43
2022-07-27T19:23:36.989Z,20.38
2022-07-27T19:26:05.218Z,20.32
2022-07-27T19:28:33.011Z,20.26
2022-07-27T19:31:00.908Z,20.21
2022-07-27T19:33:28.690Z,20.17
2022-07-27T19:35:58.275Z,20.12
2022-07-27T19:38:27.931Z,20.07
2022-07-27T19:40:55.787Z,20.02
2022-07-27T19:43:23.469Z,19.97
2022-07-27T19:45:52.319Z,19.91
2022-07-27T19:48:22.026Z,19.83
2022-07-27T19:50:49.955Z,19.76
2022-07-27T19:53:17.633Z,19.69
2022-07-27T19:55:45.331Z,19.63
2022-07-27T19:58:13.963Z,19.56
2022-07-27T20:00:41.645Z,19.51
2022-07-27T20:03:09.543Z,19.46
2022-07-27T20:05:37.294Z,19.43
2022-07-27T20:08:06.335Z,19.41
2022-07-27T20:10:34.099Z,19.36
2022-07-27T20:13:02.873Z,19.33
2022-07-27T20:15:31.745Z,19.28
2022-07-27T20:17:59.947Z,19.26
2022-07-27T20:20:27.683Z,19.22
2022-07-27T20:22:55.665Z,19.22
2022-07-27T20:25:23.344Z,19.20
2022-07-27T20:27:51.300Z,19.20
2022-07-27T20:30:20.211Z,19.17
2022-07-27T20:32:47.999Z,19.14
2022-07-27T20:35:15.776Z,19.10
2022-07-27T20:37:43.972Z,19.05
2022-07-27T20:40:12.803Z,19.01
2022-07-27T20:42:40.510Z,18.96
2022-07-27T20:45:10.359Z,18.90
2022-07-27T20:47:38.576Z,18.85
2022-07-27T20:50:06.623Z,18.78
2022-07-27T20:52:34.303Z,18.74
2022-07-27T20:55:02.247Z,18.69
2022-07-27T20:57:31.254Z,18.63
2022-07-27T20:59:59.014Z,18.58
2022-07-27T21:02:27.015Z,18.52
2022-07-27T21:04:55.153Z,18.47
2022-07-27T21:07:23.152Z,18.40
2022-07-27T21:09:50.871Z,18.37
2022-07-27T21:12:18.669Z,18.30
2022-07-27T21:14:46.362Z,18.24
2022-07-27T21:17:14.473Z,18.14
2022-07-27T21:19:42.196Z,18.09
2022-07-27T21:22:09.967Z,18.04
2022-07-27T21:24:37.671Z,17.99
2022-07-27T21:27:06.592Z,17.94
2022-07-27T21:29:36.437Z,17.88
2022-07-27T21:32:04.120Z,17.82
2022-07-27T21:34:31.958Z,17.79
2022-07-27T21:37:01.097Z,17.73
2022-07-27T21:39:29.193Z,17.65
2022-07-27T21:42:01.704Z,17.62
2022-07-27T21:44:30.091Z,17.61
2022-07-27T21:46:58.261Z,17.57
2022-07-27T21:49:34.086Z,17.55
2022-07-27T21:52:02.506Z,17.51
2022-07-27T21:54:30.579Z,17.45
2022-07-27T21:56:58.339Z,17.42
2022-07-27T21:59:26.004Z,17.38
2022-07-27T22:01:53.646Z,17.35
2022-07-27T22:04:21.567Z,17.32
2022-07-27T22:06:49.724Z,17.29
2022-07-27T22:09:17.441Z,17.20
2022-07-27T22:11:45.067Z,17.14
2022-07-27T22:14:12.923Z,17.04
2022-07-27T22:16:41.472Z,16.92
2022-07-27T22:19:09.277Z,16.79
2022-07-27T22:21:36.994Z,16.66
2022-07-27T22:24:04.713Z,16.53
2022-07-27T22:26:32.633Z,16.41
2022-07-27T22:29:00.397Z,16.30
2022-07-27T22:31:28.077Z,16.19
2022-07-27T22:33:55.806Z,16.12
2022-07-27T22:36:23.429Z,16.06
2022-07-27T22:38:51.156Z,15.99
2022-07-27T22:41:18.772Z,15.92
2022-07-27T22:43:46.762Z,15.87
2022-07-27T22:46:14.863Z,15.83
2022-07-27T22:48:42.756Z,15.79
2022-07-27T22:51:10.446Z,15.75
2022-07-27T22:53:38.731Z,15.70
2022-07-27T22:56:07.005Z,15.66
2022-07-27T22:58:34.637Z,15.63
2022-07-27T23:01:03.109Z,15.61
2022-07-27T23:03:30.892Z,15.58
2022-07-27T23:05:58.626Z,15.55
2022-07-27T23:08:28.800Z,15.51
2022-07-27T23:10:56.507Z,15.50
2022-07-27T23:13:24.114Z,15.48
2022-07-27T23:15:51.926Z,15.44
2022-07-27T23:18:20.871Z,15.42
2022-07-27T23:20:48.552Z,15.40
2022-07-27T23:23:17.020Z,15.36
2022-07-27T23:25:45.086Z,15.32
2022-07-27T23:28:13.193Z,15.28
2022-07-27T23:30:40.925Z,15.23
2022-07-27T23:33:08.660Z,15.17
2022-07-27T23:35:36.318Z,15.10
2022-07-27T23:38:04.513Z,15.06
2022-07-27T23:40:32.314Z,15.04
2022-07-27T23:42:59.931Z,15.02
2022-07-27T23:45:27.975Z,15.01
2022-07-27T23:47:56.000Z,15.01
2022-07-27T23:50:23.605Z,15.00
2022-07-27T23:52:51.274Z,14.99
2022-07-27T23:55:18.926Z,14.96
2022-07-27T23:57:47.218Z,14.93
